createdAt,value
2022-11-06T00:02:00.513Z,13.60
2022-11-06T00:04:31.192Z,12.07
2022-11-06T00:06:58.432Z,13.27
2022-11-06T00:09:25.704Z,12.63
2022-11-06T00:11:53.381Z,12.17
2022-11-06T00:14:20.807Z,11.47
2022-11-06T00:16:48.418Z,11.40
2022-11-06T00:19:16.996Z,12.20
2022-11-06T00:21:44.921Z,11.23
2022-11-06T00:24:14.113Z,10.70
2022-11-06T00:26:42.876Z,11.03
2022-11-06T00:29:14.894Z,11.27
2022-11-06T00:31:42.753Z,11.20
2022-11-06T00:34:11.224Z,11.00
2022-11-06T00:36:38.955Z,12.50
2022-11-06T00:39:06.726Z,10.27
2022-11-06T00:41:34.066Z,11.57
2022-11-06T00:44:02.613Z,11.23
2022-11-06T00:46:30.356Z,10.13
2022-11-06T00:48:57.896Z,11.27
2022-11-06T00:51:28.326Z,10.53
2022-11-06T00:53:59.285Z,11.87
2022-11-06T00:56:27.642Z,11.40
2022-11-06T00:58:55.423Z,10.75
2022-11-06T01:01:25.403Z,10.70
2022-11-06T01:04:07.552Z,9.87
2022-11-06T01:06:38.383Z,9.47
2022-11-06T01:09:07.233Z,9.83
2022-11-06T01:16:52.274Z,9.90
2022-11-06T01:19:21.227Z,15.80
2022-11-06T01:21:50.689Z,15.63
2022-11-06T01:24:24.981Z,15.00
2022-11-06T01:27:20.298Z,14.10
2022-11-06T01:29:41.805Z,11.05
2022-11-06T01:32:09.553Z,14.60
2022-11-06T01:34:37.084Z,13.47
2022-11-06T01:37:05.206Z,11.27
2022-11-06T01:39:32.753Z,10.03
2022-11-06T01:42:00.110Z,9.53
2022-11-06T01:44:34.000Z,10.17
2022-11-06T01:47:04.624Z,10.83
2022-11-06T01:49:37.818Z,10.00
2022-11-06T01:52:11.690Z,10.87
2022-11-06T01:54:42.039Z,10.17
2022-11-06T01:57:11.543Z,9.93
2022-11-06T01:59:43.602Z,10.73
2022-11-06T02:02:12.274Z,9.73
2022-11-06T02:04:45.832Z,9.68
2022-11-06T02:07:13.450Z,12.00
2022-11-06T02:09:41.624Z,11.97
2022-11-06T02:12:15.040Z,10.73
2022-11-06T02:14:51.173Z,11.27
2022-11-06T02:18:01.480Z,10.60
2022-11-06T02:20:54.753Z,9.47
2022-11-06T02:23:37.812Z,12.10
2022-11-06T02:26:12.297Z,11.03
2022-11-06T02:28:47.208Z,9.60
2022-11-06T02:31:21.282Z,9.67
2022-11-06T02:33:54.577Z,11.80
2022-11-06T02:36:29.414Z,9.23
2022-11-06T02:39:01.065Z,11.03
2022-11-06T02:41:39.856Z,9.83
2022-11-06T02:44:10.527Z,10.07
2022-11-06T02:46:46.825Z,9.30
2022-11-06T02:49:41.466Z,9.00
2022-11-06T02:52:14.465Z,10.00
2022-11-06T02:54:48.017Z,8.87
2022-11-06T02:57:18.553Z,10.83
2022-11-06T02:59:54.583Z,10.10
2022-11-06T03:02:29.588Z,11.63
2022-11-06T03:05:26.099Z,11.67
2022-11-06T03:08:20.953Z,10.30
2022-11-06T03:11:12.244Z,9.73
2022-11-06T03:13:49.375Z,9.70
2022-11-06T03:16:44.629Z,10.43
2022-11-06T03:19:24.663Z,9.63
2022-11-06T03:22:14.495Z,10.60
2022-11-06T03:24:48.262Z,12.67
2022-11-06T03:27:20.803Z,9.90
2022-11-06T03:30:05.917Z,11.70
2022-11-06T03:32:36.432Z,9.73
2022-11-06T03:35:13.280Z,10.57
2022-11-06T03:37:48.740Z,11.17
2022-11-06T03:40:19.087Z,10.07
2022-11-06T03:42:49.533Z,9.73
2022-11-06T03:45:22.523Z,11.00
2022-11-06T03:48:08.317Z,10.13
2022-11-06T03:50:43.149Z,9.90
2022-11-06T03:53:18.141Z,10.23
2022-11-06T03:55:52.275Z,10.63
2022-11-06T03:58:24.866Z,9.87
2022-11-06T04:00:55.352Z,10.57
2022-11-06T04:03:38.298Z,10.90
2022-11-06T04:06:14.907Z,10.97
2022-11-06T04:09:04.084Z,10.07
2022-11-06T04:11:53.940Z,10.85
2022-11-06T04:14:26.090Z,10.17
2022-11-06T04:16:57.960Z,10.57
2022-11-06T04:19:25.655Z,9.10
2022-11-06T04:22:17.341Z,9.80
2022-11-06T04:25:26.829Z,10.43
2022-11-06T04:28:06.169Z,10.07
2022-11-06T04:31:03.941Z,9.30
2022-11-06T04:33:49.810Z,9.33
2022-11-06T04:37:00.319Z,11.47
2022-11-06T04:39:37.090Z,10.13
2022-11-06T04:42:34.115Z,10.50
2022-11-06T04:45:22.231Z,9.73
2022-11-06T04:47:52.384Z,10.75
2022-11-06T04:50:22.865Z,10.17
2022-11-06T04:52:52.162Z,10.90
2022-11-06T04:55:22.206Z,9.38
2022-11-06T04:57:49.526Z,10.03
2022-11-06T05:00:18.135Z,9.83
2022-11-06T05:02:45.407Z,11.17
2022-11-06T05:05:13.053Z,10.27
2022-11-06T05:09:16.397Z,10.13
2022-11-06T05:11:44.362Z,10.03
2022-11-06T05:14:11.732Z,11.17
2022-11-06T05:16:39.131Z,10.30
2022-11-06T05:19:07.011Z,9.87
2022-11-06T05:21:52.781Z,14.83
2022-11-06T05:24:20.424Z,19.63
2022-11-06T05:26:47.738Z,19.37
2022-11-06T05:29:15.333Z,16.17
2022-11-06T05:31:43.348Z,13.73
2022-11-06T05:34:10.849Z,12.13
2022-11-06T05:36:38.158Z,12.83
2022-11-06T05:39:05.888Z,11.23
2022-11-06T05:41:33.212Z,10.37
2022-11-06T05:44:00.674Z,13.03
2022-11-06T05:46:48.254Z,14.23
2022-11-06T05:49:18.948Z,14.38
2022-11-06T05:51:46.885Z,12.30
2022-11-06T05:54:15.997Z,13.27
2022-11-06T05:56:43.688Z,11.70
2022-11-06T05:59:11.842Z,14.13
2022-11-06T06:01:39.528Z,13.27
2022-11-06T06:04:07.867Z,11.55
2022-11-06T06:06:36.172Z,11.57
2022-11-06T06:09:03.520Z,10.43
2022-11-06T06:11:31.156Z,17.83
2022-11-06T06:13:58.531Z,20.93
2022-11-06T06:16:25.903Z,22.00
2022-11-06T06:18:54.743Z,23.67
2022-11-06T06:21:22.986Z,24.03
2022-11-06T06:23:50.418Z,24.77
2022-11-06T06:26:18.411Z,23.57
2022-11-06T06:28:50.181Z,21.50
2022-11-06T06:31:18.433Z,18.47
2022-11-06T06:33:46.158Z,16.77
2022-11-06T06:36:13.598Z,15.87
2022-11-06T06:38:41.667Z,15.10
2022-11-06T06:41:10.282Z,14.97
2022-11-06T06:43:37.891Z,15.90
2022-11-06T06:46:07.518Z,15.60
2022-11-06T06:51:28.498Z,14.30
2022-11-06T06:53:56.031Z,13.23
2022-11-06T06:56:25.211Z,14.17
2022-11-06T06:58:54.627Z,15.37
2022-11-06T07:01:52.203Z,17.97
2022-11-06T07:04:21.445Z,16.00
2022-11-06T07:32:39.458Z,16.97
2022-11-06T07:35:08.280Z,15.40
2022-11-06T07:37:36.979Z,19.23
2022-11-06T07:40:04.907Z,19.05
2022-11-06T07:42:33.187Z,19.65
2022-11-06T07:45:01.312Z,21.23
2022-11-06T07:47:31.004Z,21.13
2022-11-06T07:49:58.862Z,21.47
2022-11-06T07:52:36.487Z,19.90
2022-11-06T07:55:07.887Z,23.43
2022-11-06T07:57:38.360Z,20.53
2022-11-06T08:00:07.259Z,20.63
2022-11-06T08:02:41.447Z,19.17
2022-11-06T08:05:10.262Z,21.03
2022-11-06T08:07:37.757Z,21.13
2022-11-06T08:10:05.760Z,18.63
2022-11-06T08:12:33.528Z,22.87
2022-11-06T08:15:00.981Z,24.50
2022-11-06T08:17:30.257Z,37.90
2022-11-06T08:19:58.023Z,27.03
2022-11-06T08:22:25.498Z,26.30
2022-11-06T08:24:52.902Z,20.30
2022-11-06T08:27:20.752Z,25.03
2022-11-06T08:29:48.098Z,20.20
2022-11-06T08:32:15.475Z,17.93
2022-11-06T08:34:43.297Z,16.50
2022-11-06T08:37:11.555Z,15.87
2022-11-06T08:39:39.147Z,15.17
2022-11-06T08:42:07.980Z,14.48
2022-11-06T08:44:35.464Z,15.00
2022-11-06T08:47:02.817Z,14.07
2022-11-06T08:49:30.523Z,13.73
2022-11-06T08:51:57.906Z,14.40
2022-11-06T08:54:25.298Z,15.07
2022-11-06T08:56:53.009Z,13.87
2022-11-06T08:59:20.393Z,14.63
2022-11-06T09:01:47.863Z,12.73
2022-11-06T09:04:15.737Z,10.83
2022-11-06T09:06:43.177Z,11.30
2022-11-06T09:09:10.796Z,11.00
2022-11-06T09:11:38.584Z,11.27
2022-11-06T09:14:05.969Z,11.20
2022-11-06T09:16:33.366Z,11.23
2022-11-06T09:19:01.266Z,10.57
2022-11-06T09:21:28.668Z,9.40
2022-11-06T09:23:56.109Z,10.07
2022-11-06T09:26:23.825Z,9.70
2022-11-06T09:28:51.470Z,11.13
2022-11-06T09:31:18.820Z,8.83
2022-11-06T09:33:46.577Z,9.17
2022-11-06T09:36:13.925Z,8.10
2022-11-06T09:38:41.267Z,9.10
2022-11-06T09:41:23.075Z,7.63
2022-11-06T09:44:17.857Z,8.27
2022-11-06T09:46:47.715Z,7.43
2022-11-06T09:49:30.354Z,7.27
2022-11-06T09:52:39.698Z,7.33
2022-11-06T10:00:29.521Z,5.50
2022-11-06T10:03:24.784Z,8.25
2022-11-06T10:05:53.893Z,6.57
2022-11-06T10:08:24.473Z,12.60
2022-11-06T10:11:10.686Z,12.53
2022-11-06T10:14:08.008Z,9.43
2022-11-06T10:17:01.077Z,8.23
2022-11-06T10:19:40.329Z,7.43
2022-11-06T10:22:07.709Z,7.70
2022-11-06T10:25:04.874Z,6.93
2022-11-06T10:27:48.626Z,6.23
2022-11-06T10:30:19.049Z,7.00
2022-11-06T10:33:08.840Z,6.70
2022-11-06T10:35:51.361Z,5.47
2022-11-06T10:38:25.180Z,6.47
2022-11-06T10:40:55.243Z,5.53
2022-11-06T10:43:46.950Z,5.17
2022-11-06T10:46:23.853Z,5.07
2022-11-06T10:48:56.222Z,4.13
2022-11-06T10:51:26.905Z,5.50
2022-11-06T10:54:07.203Z,5.03
2022-11-06T10:56:47.943Z,5.47
2022-11-06T10:59:16.611Z,4.40
2022-11-06T11:01:44.565Z,4.20
2022-11-06T11:04:12.198Z,5.63
2022-11-06T11:06:41.066Z,3.80
2022-11-06T11:09:33.007Z,4.57
2022-11-06T11:12:00.959Z,5.07
2022-11-06T11:14:31.103Z,4.37
2022-11-06T11:17:01.623Z,5.13
2022-11-06T11:19:38.372Z,4.17
2022-11-06T11:22:17.650Z,4.17
2022-11-06T11:25:03.016Z,4.67
2022-11-06T11:27:35.293Z,4.93
2022-11-06T11:30:06.203Z,4.90
2022-11-06T11:32:34.103Z,4.50
2022-11-06T11:35:07.541Z,4.90
2022-11-06T11:37:36.306Z,4.63
2022-11-06T11:40:36.648Z,4.12
2022-11-06T11:43:19.869Z,4.30
2022-11-06T11:46:05.592Z,4.07
2022-11-06T11:48:46.241Z,4.10
2022-11-06T11:51:28.323Z,4.30
2022-11-06T11:54:16.302Z,5.10
2022-11-06T11:57:18.110Z,4.07
2022-11-06T11:59:57.130Z,4.50
2022-11-06T12:02:37.334Z,3.85
2022-11-06T12:05:12.955Z,4.00
2022-11-06T12:07:54.585Z,4.80
2022-11-06T12:10:30.984Z,5.03
2022-11-06T12:13:00.037Z,4.70
2022-11-06T12:15:34.144Z,6.47
2022-11-06T12:18:06.827Z,5.30
2022-11-06T12:20:40.085Z,7.57
2022-11-06T12:23:15.060Z,5.50
2022-11-06T12:25:48.218Z,5.93
2022-11-06T12:28:19.176Z,4.97
2022-11-06T12:30:54.440Z,5.50
2022-11-06T12:33:52.040Z,6.90
2022-11-06T12:36:19.008Z,4.97
2022-11-06T12:39:04.315Z,5.10
2022-11-06T12:41:36.953Z,4.47
2022-11-06T12:44:09.761Z,6.20
2022-11-06T12:46:47.829Z,5.13
2022-11-06T12:49:21.391Z,4.63
2022-11-06T12:52:20.343Z,5.17
2022-11-06T12:55:14.285Z,5.28
2022-11-06T12:58:04.686Z,5.03
2022-11-06T13:00:41.176Z,5.13
2022-11-06T13:03:28.405Z,5.33
2022-11-06T13:05:56.091Z,5.37
2022-11-06T13:08:43.107Z,7.50
2022-11-06T13:11:33.543Z,9.47
2022-11-06T13:14:09.781Z,8.63
2022-11-06T13:17:06.255Z,6.20
2022-11-06T13:20:07.989Z,8.37
2022-11-06T13:22:59.060Z,8.77
2022-11-06T13:25:35.130Z,8.20
2022-11-06T13:28:17.192Z,10.68
2022-11-06T13:30:46.236Z,16.17
2022-11-06T13:33:31.376Z,10.18
2022-11-06T13:36:00.556Z,10.17
2022-11-06T13:38:30.613Z,10.38
2022-11-06T13:41:03.838Z,14.03
2022-11-06T13:43:41.567Z,33.43
2022-11-06T13:46:18.450Z,19.40
2022-11-06T13:48:59.642Z,31.23
2022-11-06T13:51:37.929Z,20.80
2022-11-06T13:54:35.657Z,20.20
2022-11-06T13:57:12.643Z,21.70
2022-11-06T14:00:03.721Z,15.93
2022-11-06T14:03:10.113Z,33.80
2022-11-06T14:09:24.934Z,19.37
2022-11-06T14:11:56.933Z,13.70
2022-11-06T14:14:30.544Z,9.37
2022-11-06T14:17:14.777Z,15.20
2022-11-06T14:19:49.135Z,10.73
2022-11-06T14:22:36.549Z,8.77
2022-11-06T14:25:42.296Z,8.77
2022-11-06T14:28:10.176Z,7.70
2022-11-06T14:31:10.883Z,8.40
2022-11-06T14:33:44.148Z,10.67
2022-11-06T14:36:35.928Z,10.23
2022-11-06T14:39:09.779Z,9.67
2022-11-06T14:41:38.601Z,47.50
2022-11-06T14:44:15.890Z,18.63
2022-11-06T14:46:50.725Z,21.50
2022-11-06T14:49:42.332Z,26.23
2022-11-06T14:52:14.067Z,17.00
2022-11-06T14:55:09.739Z,10.70
2022-11-06T14:57:43.624Z,8.03
2022-11-06T15:00:35.630Z,7.90
2022-11-06T15:03:06.340Z,7.83
2022-11-06T15:05:41.842Z,7.90
2022-11-06T15:08:10.582Z,7.70
2022-11-06T15:10:44.325Z,8.82
2022-11-06T15:13:18.348Z,11.20
2022-11-06T15:15:50.549Z,14.97
2022-11-06T15:18:24.171Z,15.07
2022-11-06T15:20:57.430Z,11.30
2022-11-06T15:23:59.049Z,10.67
2022-11-06T15:26:41.287Z,16.43
2022-11-06T15:29:18.318Z,20.77
2022-11-06T15:32:02.953Z,13.97
2022-11-06T15:34:36.836Z,24.80
2022-11-06T15:37:04.581Z,25.97
2022-11-06T15:39:59.106Z,43.87
2022-11-06T15:42:34.738Z,19.50
2022-11-06T15:45:12.979Z,12.87
2022-11-06T15:47:40.742Z,11.48
2022-11-06T15:50:21.582Z,10.83
2022-11-06T15:52:50.443Z,10.80
2022-11-06T15:55:29.529Z,12.82
2022-11-06T15:58:09.009Z,30.10
2022-11-06T16:03:06.906Z,38.07
2022-11-06T16:05:37.168Z,20.07
2022-11-06T16:08:06.951Z,17.37
2022-11-06T16:10:37.351Z,16.10
2022-11-06T16:13:05.561Z,19.07
2022-11-06T16:15:45.260Z,20.45
2022-11-06T16:18:16.401Z,21.90
2022-11-06T16:21:05.870Z,25.83
2022-11-06T16:23:48.662Z,21.07
2022-11-06T16:26:37.583Z,20.83
2022-11-06T16:29:15.870Z,20.17
2022-11-06T16:31:44.139Z,20.20
2022-11-06T16:34:37.737Z,18.90
2022-11-06T16:37:08.311Z,17.07
2022-11-06T16:39:51.034Z,23.87
2022-11-06T16:42:22.460Z,23.90
2022-11-06T16:45:13.217Z,17.40
2022-11-06T16:47:40.637Z,11.10
2022-11-06T16:50:45.990Z,10.43
2022-11-06T16:53:19.630Z,11.57
2022-11-06T16:56:06.788Z,11.40
2022-11-06T16:58:56.664Z,11.27
2022-11-06T17:01:25.120Z,11.20
2022-11-06T17:03:59.624Z,11.30
2022-11-06T17:06:32.564Z,10.17
2022-11-06T17:09:35.462Z,9.67
2022-11-06T17:12:03.829Z,8.70
2022-11-06T17:14:32.807Z,10.47
2022-11-06T17:17:01.560Z,10.23
2022-11-06T17:21:58.345Z,10.03
2022-11-06T17:24:41.607Z,10.27
2022-11-06T17:27:09.425Z,9.27
2022-11-06T17:29:37.035Z,9.40
2022-11-06T17:32:04.886Z,10.43
2022-11-06T17:34:32.729Z,11.00
2022-11-06T17:37:00.092Z,12.90
2022-11-06T17:39:27.526Z,11.40
2022-11-06T17:41:55.466Z,10.63
2022-11-06T17:44:22.903Z,13.87
2022-11-06T17:46:50.355Z,13.60
2022-11-06T17:49:18.891Z,11.17
2022-11-06T17:51:52.909Z,11.25
2022-11-06T17:54:23.713Z,10.87
2022-11-06T17:56:51.689Z,11.70
2022-11-06T17:59:19.206Z,13.13
2022-11-06T18:01:53.390Z,24.30
2022-11-06T18:04:23.000Z,20.17
2022-11-06T18:09:21.030Z,65.23
2022-11-06T18:14:21.621Z,49.57
2022-11-06T18:19:21.031Z,48.70
2022-11-06T18:21:49.361Z,51.23
2022-11-06T18:24:16.910Z,47.20
2022-11-06T18:26:44.398Z,53.50
2022-11-06T18:29:13.023Z,51.33
2022-11-06T18:31:41.361Z,56.15
2022-11-06T18:34:18.414Z,58.97
2022-11-06T18:36:50.263Z,53.20
2022-11-06T18:39:18.307Z,50.33
2022-11-06T18:41:45.784Z,46.87
2022-11-06T18:44:16.247Z,37.27
2022-11-06T18:46:43.834Z,28.87
2022-11-06T18:49:12.593Z,30.37
2022-11-06T18:54:10.850Z,44.50
2022-11-06T18:56:39.063Z,40.77
2022-11-06T18:59:09.054Z,38.05
2022-11-06T19:01:36.573Z,39.00
2022-11-06T19:04:05.138Z,36.13
2022-11-06T19:06:32.944Z,36.22
2022-11-06T19:09:00.418Z,33.20
2022-11-06T19:11:27.839Z,32.50
2022-11-06T19:13:55.605Z,37.87
2022-11-06T19:16:23.010Z,42.60
2022-11-06T19:21:32.803Z,44.92
2022-11-06T19:24:04.477Z,49.43
2022-11-06T19:26:35.341Z,46.70
2022-11-06T19:29:05.466Z,47.07
2022-11-06T19:31:33.603Z,44.03
2022-11-06T19:34:02.150Z,44.50
2022-11-06T19:36:30.987Z,43.30
2022-11-06T19:38:59.153Z,42.60
2022-11-06T19:41:27.940Z,49.57
2022-11-06T19:43:55.557Z,47.58
2022-11-06T19:46:28.220Z,45.53
2022-11-06T19:48:58.392Z,44.23
2022-11-06T19:51:26.138Z,42.20
2022-11-06T19:53:54.329Z,35.70
2022-11-06T19:56:22.319Z,26.97
2022-11-06T19:58:50.891Z,30.30
2022-11-06T20:01:20.204Z,29.13
2022-11-06T20:03:48.042Z,25.80
2022-11-06T20:06:16.754Z,24.37
2022-11-06T20:08:48.398Z,26.27
2022-11-06T20:11:16.761Z,25.57
2022-11-06T20:13:45.756Z,22.37
2022-11-06T20:16:17.120Z,26.30
2022-11-06T20:18:51.334Z,30.80
2022-11-06T20:21:19.126Z,41.07
2022-11-06T20:23:46.893Z,47.27
2022-11-06T20:26:15.268Z,43.90
2022-11-06T20:28:42.825Z,50.95
2022-11-06T20:31:12.214Z,49.27
2022-11-06T20:33:40.358Z,50.92
2022-11-06T20:36:15.365Z,48.13
2022-11-06T20:38:46.751Z,53.50
2022-11-06T20:41:16.577Z,48.13
2022-11-06T20:43:45.168Z,45.13
2022-11-06T20:46:14.101Z,44.73
2022-11-06T20:48:43.132Z,44.40
2022-11-06T20:51:20.501Z,35.03
2022-11-06T20:53:47.912Z,32.57
2022-11-06T20:56:18.800Z,35.13
2022-11-06T20:58:47.105Z,35.50
2022-11-06T21:01:18.371Z,34.67
2022-11-06T21:03:47.770Z,32.63
2022-11-06T21:06:15.996Z,31.42
2022-11-06T21:08:43.939Z,30.50
2022-11-06T21:11:18.249Z,32.22
2022-11-06T21:13:48.321Z,34.17
2022-11-06T21:16:24.914Z,31.37
2022-11-06T21:18:52.816Z,28.40
2022-11-06T21:21:25.363Z,27.70
2022-11-06T21:23:53.882Z,28.83
2022-11-06T21:26:27.008Z,27.50
2022-11-06T21:28:55.957Z,63.70
2022-11-06T21:31:27.358Z,69.10
2022-11-06T21:33:56.325Z,50.87
2022-11-06T21:36:26.797Z,42.20
2022-11-06T21:38:56.944Z,39.20
2022-11-06T21:41:26.668Z,35.57
2022-11-06T21:43:54.083Z,37.87
2022-11-06T21:46:22.362Z,36.50
2022-11-06T21:48:50.841Z,35.33
2022-11-06T21:51:24.098Z,31.62
2022-11-06T21:54:10.829Z,30.23
2022-11-06T21:56:39.812Z,31.07
2022-11-06T21:59:10.244Z,29.77
2022-11-06T22:01:38.227Z,35.20
2022-11-06T22:04:06.789Z,38.88
2022-11-06T22:06:34.458Z,42.43
2022-11-06T22:09:03.065Z,41.37
2022-11-06T22:11:33.945Z,34.20
2022-11-06T22:14:04.273Z,27.47
2022-11-06T22:16:34.896Z,38.73
2022-11-06T22:19:02.408Z,38.90
2022-11-06T22:21:30.942Z,39.20
2022-11-06T22:23:58.857Z,27.65
2022-11-06T22:26:29.930Z,31.37
2022-11-06T22:29:00.136Z,33.07
2022-11-06T22:31:28.837Z,36.10
2022-11-06T22:33:57.191Z,36.92
2022-11-06T22:36:25.814Z,36.67
2022-11-06T22:38:53.786Z,33.22
2022-11-06T22:41:24.021Z,28.83
2022-11-06T22:43:51.993Z,27.50
2022-11-06T22:46:22.680Z,29.75
2022-11-06T22:48:51.950Z,32.07
2022-11-06T22:51:25.626Z,26.35
2022-11-06T22:53:53.414Z,28.30
2022-11-06T22:56:22.786Z,28.63
2022-11-06T22:59:01.338Z,26.15
2022-11-06T23:01:31.039Z,26.23
2022-11-06T23:04:03.171Z,25.30
2022-11-06T23:06:31.762Z,24.40
2022-11-06T23:08:59.289Z,25.27
2022-11-06T23:11:28.663Z,24.73
2022-11-06T23:13:57.675Z,27.37
2022-11-06T23:16:45.549Z,27.15
2022-11-06T23:19:16.197Z,28.87
2022-11-06T23:21:43.796Z,45.97
2022-11-06T23:24:11.774Z,35.40
2022-11-06T23:26:39.844Z,21.30
2022-11-06T23:29:08.316Z,20.70
2022-11-06T23:31:35.695Z,18.35
2022-11-06T23:34:03.480Z,19.80
2022-11-06T23:36:30.825Z,22.30
2022-11-06T23:38:58.183Z,22.00
2022-11-06T23:41:45.720Z,22.43
2022-11-06T23:44:33.496Z,17.77
2022-11-06T23:47:02.082Z,18.10
2022-11-06T23:49:29.695Z,17.62
2022-11-06T23:51:57.197Z,18.03
2022-11-06T23:54:25.706Z,19.13
2022-11-06T23:56:53.062Z,17.87
2022-11-06T23:59:20.987Z,16.70
